sensor_id;sensor_type;location;lat;lon;timestamp;P1;durP1;ratioP1;P2;durP2;ratioP2
37847;SDS011;23688;33.130;-117.188;2022-08-19T00:00:48;11.98;;;5.50;;
37847;SDS011;23688;33.130;-117.188;2022-08-19T00:03:15;10.63;;;4.73;;
37847;SDS011;23688;33.130;-117.188;2022-08-19T00:05:42;11.07;;;4.97;;
37847;SDS011;23688;33.130;-117.188;2022-08-19T00:08:08;13.77;;;5.80;;
37847;SDS011;23688;33.130;-117.188;2022-08-19T00:10:34;11.27;;;4.60;;
37847;SDS011;23688;33.130;-117.188;2022-08-19T00:13:01;14.73;;;5.93;;
37847;SDS011;23688;33.130;-117.188;2022-08-19T00:15:27;12.52;;;5.30;;
37847;SDS011;23688;33.130;-117.188;2022-08-19T00:17:53;12.85;;;5.43;;
37847;SDS011;23688;33.130;-117.188;2022-08-19T00:20:20;9.40;;;4.70;;
37847;SDS011;23688;33.130;-117.188;2022-08-19T00:22:47;10.65;;;5.07;;
37847;SDS011;23688;33.130;-117.188;2022-08-19T00:25:14;17.98;;;5.43;;
37847;SDS011;23688;33.130;-117.188;2022-08-19T00:27:40;14.45;;;5.00;;
37847;SDS011;23688;33.130;-117.188;2022-08-19T00:30:07;12.13;;;5.25;;
37847;SDS011;23688;33.130;-117.188;2022-08-19T00:32:35;12.35;;;4.90;;
37847;SDS011;23688;33.130;-117.188;2022-08-19T00:35:03;10.98;;;4.70;;
37847;SDS011;23688;33.130;-117.188;2022-08-19T00:37:30;9.18;;;5.00;;
37847;SDS011;23688;33.130;-117.188;2022-08-19T00:39:58;13.60;;;5.28;;
37847;SDS011;23688;33.130;-117.188;2022-08-19T00:42:24;11.15;;;4.97;;
37847;SDS011;23688;33.130;-117.188;2022-08-19T00:44:53;11.60;;;4.70;;
37847;SDS011;23688;33.130;-117.188;2022-08-19T00:47:20;14.23;;;5.15;;
37847;SDS011;23688;33.130;-117.188;2022-08-19T00:49:50;13.77;;;5.10;;
37847;SDS011;23688;33.130;-117.188;2022-08-19T00:52:21;12.77;;;5.60;;
37847;SDS011;23688;33.130;-117.188;2022-08-19T00:54:54;13.10;;;5.55;;
37847;SDS011;23688;33.130;-117.188;2022-08-19T00:57:33;11.85;;;5.82;;
37847;SDS011;23688;33.130;-117.188;2022-08-19T01:00:10;16.10;;;5.53;;
37847;SDS011;23688;33.130;-117.188;2022-08-19T01:02:41;9.93;;;4.83;;
37847;SDS011;23688;33.130;-117.188;2022-08-19T01:05:09;15.57;;;5.07;;
37847;SDS011;23688;33.130;-117.188;2022-08-19T01:07:38;12.52;;;5.82;;
37847;SDS011;23688;33.130;-117.188;2022-08-19T01:10:07;14.50;;;5.80;;
37847;SDS011;23688;33.130;-117.188;2022-08-19T01:12:37;16.00;;;6.15;;
37847;SDS011;23688;33.130;-117.188;2022-08-19T01:15:05;11.32;;;5.30;;
37847;SDS011;23688;33.130;-117.188;2022-08-19T01:17:34;16.30;;;6.45;;
37847;SDS011;23688;33.130;-117.188;2022-08-19T01:20:03;8.77;;;5.13;;
37847;SDS011;23688;33.130;-117.188;2022-08-19T01:25:10;10.57;;;5.45;;
37847;SDS011;23688;33.130;-117.188;2022-08-19T01:27:38;14.00;;;5.57;;
37847;SDS011;23688;33.130;-117.188;2022-08-19T01:32:33;15.02;;;5.63;;
37847;SDS011;23688;33.130;-117.188;2022-08-19T01:35:02;13.82;;;5.70;;
37847;SDS011;23688;33.130;-117.188;2022-08-19T01:37:41;9.73;;;5.80;;
37847;SDS011;23688;33.130;-117.188;2022-08-19T01:40:09;15.48;;;5.75;;
37847;SDS011;23688;33.130;-117.188;2022-08-19T01:42:36;15.50;;;5.97;;
37847;SDS011;23688;33.130;-117.188;2022-08-19T01:45:03;10.68;;;5.47;;
37847;SDS011;23688;33.130;-117.188;2022-08-19T01:47:34;15.98;;;6.40;;
37847;SDS011;23688;33.130;-117.188;2022-08-19T01:50:05;19.98;;;6.10;;
37847;SDS011;23688;33.130;-117.188;2022-08-19T01:52:36;12.27;;;6.18;;
37847;SDS011;23688;33.130;-117.188;2022-08-19T01:57:32;13.95;;;6.53;;
37847;SDS011;23688;33.130;-117.188;2022-08-19T01:59:58;17.50;;;6.35;;
37847;SDS011;23688;33.130;-117.188;2022-08-19T02:02:25;17.73;;;6.47;;
37847;SDS011;23688;33.130;-117.188;2022-08-19T02:04:52;11.43;;;5.55;;
37847;SDS011;23688;33.130;-117.188;2022-08-19T02:07:19;20.20;;;6.28;;
37847;SDS011;23688;33.130;-117.188;2022-08-19T02:09:47;14.48;;;6.45;;
37847;SDS011;23688;33.130;-117.188;2022-08-19T02:12:14;15.57;;;5.93;;
37847;SDS011;23688;33.130;-117.188;2022-08-19T02:14:41;12.93;;;6.40;;
37847;SDS011;23688;33.130;-117.188;2022-08-19T02:17:08;19.95;;;6.18;;
37847;SDS011;23688;33.130;-117.188;2022-08-19T02:19:34;17.60;;;6.72;;
37847;SDS011;23688;33.130;-117.188;2022-08-19T02:22:01;19.50;;;7.40;;
37847;SDS011;23688;33.130;-117.188;2022-08-19T02:24:27;22.50;;;7.97;;
37847;SDS011;23688;33.130;-117.188;2022-08-19T02:26:54;19.50;;;7.30;;
37847;SDS011;23688;33.130;-117.188;2022-08-19T02:29:20;14.52;;;7.03;;
37847;SDS011;23688;33.130;-117.188;2022-08-19T02:31:46;17.33;;;8.23;;
37847;SDS011;23688;33.130;-117.188;2022-08-19T02:34:13;18.33;;;7.85;;
37847;SDS011;23688;33.130;-117.188;2022-08-19T02:36:39;23.13;;;7.85;;
37847;SDS011;23688;33.130;-117.188;2022-08-19T02:39:05;16.60;;;7.78;;
37847;SDS011;23688;33.130;-117.188;2022-08-19T02:41:32;19.15;;;8.25;;
37847;SDS011;23688;33.130;-117.188;2022-08-19T02:44:00;17.30;;;7.95;;
37847;SDS011;23688;33.130;-117.188;2022-08-19T02:46:30;15.50;;;8.32;;
37847;SDS011;23688;33.130;-117.188;2022-08-19T02:48:59;22.38;;;8.90;;
37847;SDS011;23688;33.130;-117.188;2022-08-19T02:51:29;25.00;;;8.45;;
37847;SDS011;23688;33.130;-117.188;2022-08-19T02:53:57;17.20;;;8.27;;
37847;SDS011;23688;33.130;-117.188;2022-08-19T02:56:25;23.05;;;8.38;;
37847;SDS011;23688;33.130;-117.188;2022-08-19T02:58:53;19.40;;;8.98;;
37847;SDS011;23688;33.130;-117.188;2022-08-19T03:01:25;17.05;;;8.95;;
37847;SDS011;23688;33.130;-117.188;2022-08-19T03:03:55;26.08;;;9.48;;
37847;SDS011;23688;33.130;-117.188;2022-08-19T03:06:23;15.32;;;8.82;;
37847;SDS011;23688;33.130;-117.188;2022-08-19T03:08:49;24.83;;;9.15;;
37847;SDS011;23688;33.130;-117.188;2022-08-19T03:11:20;20.20;;;9.40;;
37847;SDS011;23688;33.130;-117.188;2022-08-19T03:13:55;22.85;;;9.82;;
37847;SDS011;23688;33.130;-117.188;2022-08-19T03:16:22;17.65;;;10.00;;
37847;SDS011;23688;33.130;-117.188;2022-08-19T03:18:50;20.13;;;9.07;;
37847;SDS011;23688;33.130;-117.188;2022-08-19T03:21:22;17.15;;;9.05;;
37847;SDS011;23688;33.130;-117.188;2022-08-19T03:23:53;25.40;;;9.68;;
37847;SDS011;23688;33.130;-117.188;2022-08-19T03:26:20;17.40;;;9.00;;
37847;SDS011;23688;33.130;-117.188;2022-08-19T03:28:47;19.08;;;8.93;;
37847;SDS011;23688;33.130;-117.188;2022-08-19T03:31:16;26.25;;;9.35;;
37847;SDS011;23688;33.130;-117.188;2022-08-19T03:33:46;22.30;;;10.10;;
37847;SDS011;23688;33.130;-117.188;2022-08-19T03:36:14;22.20;;;10.38;;
37847;SDS011;23688;33.130;-117.188;2022-08-19T03:38:47;17.30;;;9.63;;
37847;SDS011;23688;33.130;-117.188;2022-08-19T03:41:17;23.08;;;10.32;;
37847;SDS011;23688;33.130;-117.188;2022-08-19T03:43:46;22.33;;;8.90;;
37847;SDS011;23688;33.130;-117.188;2022-08-19T03:46:15;22.27;;;9.97;;
37847;SDS011;23688;33.130;-117.188;2022-08-19T03:48:46;19.40;;;9.25;;
37847;SDS011;23688;33.130;-117.188;2022-08-19T03:51:17;37.30;;;11.13;;
37847;SDS011;23688;33.130;-117.188;2022-08-19T03:53:56;20.88;;;9.52;;
37847;SDS011;23688;33.130;-117.188;2022-08-19T03:56:24;23.80;;;10.07;;
37847;SDS011;23688;33.130;-117.188;2022-08-19T03:58:53;29.80;;;11.63;;
37847;SDS011;23688;33.130;-117.188;2022-08-19T04:01:24;16.80;;;10.23;;
37847;SDS011;23688;33.130;-117.188;2022-08-19T04:06:19;22.85;;;10.05;;
37847;SDS011;23688;33.130;-117.188;2022-08-19T04:08:48;19.48;;;10.63;;
37847;SDS011;23688;33.130;-117.188;2022-08-19T04:11:21;24.38;;;10.50;;
37847;SDS011;23688;33.130;-117.188;2022-08-19T04:13:50;28.08;;;11.75;;
37847;SDS011;23688;33.130;-117.188;2022-08-19T04:16:21;21.40;;;9.77;;
37847;SDS011;23688;33.130;-117.188;2022-08-19T04:18:49;27.50;;;10.07;;
37847;SDS011;23688;33.130;-117.188;2022-08-19T04:21:17;22.48;;;9.75;;
37847;SDS011;23688;33.130;-117.188;2022-08-19T04:23:48;26.35;;;11.63;;
37847;SDS011;23688;33.130;-117.188;2022-08-19T04:26:18;17.77;;;10.20;;
37847;SDS011;23688;33.130;-117.188;2022-08-19T04:29:02;20.02;;;10.52;;
37847;SDS011;23688;33.130;-117.188;2022-08-19T04:31:32;28.77;;;10.68;;
37847;SDS011;23688;33.130;-117.188;2022-08-19T04:34:03;29.27;;;11.77;;
37847;SDS011;23688;33.130;-117.188;2022-08-19T04:36:33;21.13;;;10.50;;
37847;SDS011;23688;33.130;-117.188;2022-08-19T04:41:29;27.35;;;10.75;;
37847;SDS011;23688;33.130;-117.188;2022-08-19T04:44:13;31.88;;;11.68;;
37847;SDS011;23688;33.130;-117.188;2022-08-19T04:46:43;30.13;;;11.52;;
37847;SDS011;23688;33.130;-117.188;2022-08-19T04:49:14;22.45;;;10.85;;
37847;SDS011;23688;33.130;-117.188;2022-08-19T04:51:42;20.27;;;10.85;;
37847;SDS011;23688;33.130;-117.188;2022-08-19T04:56:38;32.22;;;10.63;;
37847;SDS011;23688;33.130;-117.188;2022-08-19T04:59:05;23.98;;;10.48;;
37847;SDS011;23688;33.130;-117.188;2022-08-19T05:01:32;24.27;;;10.20;;
37847;SDS011;23688;33.130;-117.188;2022-08-19T05:04:00;28.88;;;10.50;;
37847;SDS011;23688;33.130;-117.188;2022-08-19T05:06:30;25.90;;;12.32;;
37847;SDS011;23688;33.130;-117.188;2022-08-19T05:09:04;30.00;;;12.32;;
37847;SDS011;23688;33.130;-117.188;2022-08-19T05:11:32;27.02;;;11.45;;
37847;SDS011;23688;33.130;-117.188;2022-08-19T05:14:03;26.10;;;10.63;;
37847;SDS011;23688;33.130;-117.188;2022-08-19T05:16:31;18.88;;;11.27;;
37847;SDS011;23688;33.130;-117.188;2022-08-19T05:18:57;20.02;;;10.73;;
37847;SDS011;23688;33.130;-117.188;2022-08-19T05:21:42;23.58;;;11.30;;
37847;SDS011;23688;33.130;-117.188;2022-08-19T05:24:27;23.90;;;10.60;;
37847;SDS011;23688;33.130;-117.188;2022-08-19T05:26:55;22.73;;;10.38;;
37847;SDS011;23688;33.130;-117.188;2022-08-19T05:29:22;17.92;;;9.27;;
37847;SDS011;23688;33.130;-117.188;2022-08-19T05:31:50;25.52;;;10.05;;
37847;SDS011;23688;33.130;-117.188;2022-08-19T05:34:18;31.70;;;11.73;;
37847;SDS011;23688;33.130;-117.188;2022-08-19T05:36:52;24.83;;;11.25;;
37847;SDS011;23688;33.130;-117.188;2022-08-19T05:39:23;22.25;;;11.13;;
37847;SDS011;23688;33.130;-117.188;2022-08-19T05:41:54;26.02;;;10.65;;
37847;SDS011;23688;33.130;-117.188;2022-08-19T05:44:26;22.17;;;10.50;;
37847;SDS011;23688;33.130;-117.188;2022-08-19T05:46:58;20.38;;;11.15;;
37847;SDS011;23688;33.130;-117.188;2022-08-19T05:49:26;26.08;;;12.75;;
37847;SDS011;23688;33.130;-117.188;2022-08-19T05:51:54;20.92;;;11.05;;
37847;SDS011;23688;33.130;-117.188;2022-08-19T05:54:21;25.50;;;10.82;;
37847;SDS011;23688;33.130;-117.188;2022-08-19T05:56:49;26.10;;;11.48;;
37847;SDS011;23688;33.130;-117.188;2022-08-19T05:59:17;28.88;;;11.02;;
37847;SDS011;23688;33.130;-117.188;2022-08-19T06:01:47;21.25;;;11.23;;
37847;SDS011;23688;33.130;-117.188;2022-08-19T06:04:20;27.05;;;11.27;;
37847;SDS011;23688;33.130;-117.188;2022-08-19T06:06:47;33.15;;;11.30;;
37847;SDS011;23688;33.130;-117.188;2022-08-19T06:09:17;24.63;;;11.32;;
37847;SDS011;23688;33.130;-117.188;2022-08-19T06:11:45;27.45;;;12.48;;
37847;SDS011;23688;33.130;-117.188;2022-08-19T06:14:18;26.27;;;11.95;;
37847;SDS011;23688;33.130;-117.188;2022-08-19T06:16:48;22.98;;;10.98;;
37847;SDS011;23688;33.130;-117.188;2022-08-19T06:19:18;27.40;;;10.95;;
37847;SDS011;23688;33.130;-117.188;2022-08-19T06:21:48;16.92;;;11.07;;
37847;SDS011;23688;33.130;-117.188;2022-08-19T06:24:17;20.33;;;10.43;;
37847;SDS011;23688;33.130;-117.188;2022-08-19T06:26:48;21.73;;;10.77;;
37847;SDS011;23688;33.130;-117.188;2022-08-19T06:29:16;27.75;;;10.07;;
37847;SDS011;23688;33.130;-117.188;2022-08-19T06:31:45;14.63;;;9.50;;
37847;SDS011;23688;33.130;-117.188;2022-08-19T06:34:15;18.42;;;10.63;;
37847;SDS011;23688;33.130;-117.188;2022-08-19T06:36:46;26.48;;;11.00;;
37847;SDS011;23688;33.130;-117.188;2022-08-19T06:39:15;17.02;;;10.05;;
37847;SDS011;23688;33.130;-117.188;2022-08-19T06:41:50;14.63;;;8.57;;
37847;SDS011;23688;33.130;-117.188;2022-08-19T06:46:45;26.33;;;9.23;;
37847;SDS011;23688;33.130;-117.188;2022-08-19T06:49:11;18.35;;;9.57;;
37847;SDS011;23688;33.130;-117.188;2022-08-19T06:51:40;19.27;;;8.50;;
37847;SDS011;23688;33.130;-117.188;2022-08-19T06:54:07;15.52;;;9.60;;
37847;SDS011;23688;33.130;-117.188;2022-08-19T06:56:34;15.52;;;8.85;;
37847;SDS011;23688;33.130;-117.188;2022-08-19T06:59:08;21.38;;;9.77;;
37847;SDS011;23688;33.130;-117.188;2022-08-19T07:01:38;17.33;;;9.25;;
37847;SDS011;23688;33.130;-117.188;2022-08-19T07:04:06;18.55;;;9.80;;
37847;SDS011;23688;33.130;-117.188;2022-08-19T07:06:34;16.42;;;9.32;;
37847;SDS011;23688;33.130;-117.188;2022-08-19T07:09:01;18.23;;;9.55;;
37847;SDS011;23688;33.130;-117.188;2022-08-19T07:11:29;14.70;;;8.43;;
37847;SDS011;23688;33.130;-117.188;2022-08-19T07:13:56;16.55;;;8.60;;
37847;SDS011;23688;33.130;-117.188;2022-08-19T07:16:22;15.27;;;9.15;;
37847;SDS011;23688;33.130;-117.188;2022-08-19T07:18:49;20.25;;;9.50;;
37847;SDS011;23688;33.130;-117.188;2022-08-19T07:21:23;20.25;;;8.65;;
37847;SDS011;23688;33.130;-117.188;2022-08-19T07:23:55;22.60;;;9.10;;
37847;SDS011;23688;33.130;-117.188;2022-08-19T07:26:24;23.25;;;9.48;;
37847;SDS011;23688;33.130;-117.188;2022-08-19T07:28:52;16.00;;;8.63;;
37847;SDS011;23688;33.130;-117.188;2022-08-19T07:31:20;25.67;;;8.60;;
37847;SDS011;23688;33.130;-117.188;2022-08-19T07:33:49;14.27;;;9.07;;
37847;SDS011;23688;33.130;-117.188;2022-08-19T07:36:18;14.05;;;8.13;;
37847;SDS011;23688;33.130;-117.188;2022-08-19T07:38:48;17.40;;;8.82;;
37847;SDS011;23688;33.130;-117.188;2022-08-19T07:41:19;19.75;;;9.45;;
37847;SDS011;23688;33.130;-117.188;2022-08-19T07:43:48;16.27;;;9.60;;
37847;SDS011;23688;33.130;-117.188;2022-08-19T07:46:15;19.73;;;10.25;;
37847;SDS011;23688;33.130;-117.188;2022-08-19T07:48:43;15.35;;;9.55;;
37847;SDS011;23688;33.130;-117.188;2022-08-19T07:51:13;19.60;;;10.10;;
37847;SDS011;23688;33.130;-117.188;2022-08-19T07:53:41;15.32;;;9.73;;
37847;SDS011;23688;33.130;-117.188;2022-08-19T07:56:10;17.45;;;9.65;;
37847;SDS011;23688;33.130;-117.188;2022-08-19T07:58:39;16.50;;;10.13;;
37847;SDS011;23688;33.130;-117.188;2022-08-19T08:01:09;20.27;;;9.93;;
37847;SDS011;23688;33.130;-117.188;2022-08-19T08:03:38;17.10;;;9.25;;
37847;SDS011;23688;33.130;-117.188;2022-08-19T08:06:24;15.30;;;9.07;;
37847;SDS011;23688;33.130;-117.188;2022-08-19T08:09:09;19.17;;;8.77;;
37847;SDS011;23688;33.130;-117.188;2022-08-19T08:11:39;20.75;;;10.45;;
37847;SDS011;23688;33.130;-117.188;2022-08-19T08:14:16;21.10;;;9.18;;
37847;SDS011;23688;33.130;-117.188;2022-08-19T08:16:48;18.65;;;10.05;;
37847;SDS011;23688;33.130;-117.188;2022-08-19T08:19:19;18.48;;;9.43;;
37847;SDS011;23688;33.130;-117.188;2022-08-19T08:21:48;12.98;;;9.25;;
37847;SDS011;23688;33.130;-117.188;2022-08-19T08:24:15;14.80;;;9.10;;
37847;SDS011;23688;33.130;-117.188;2022-08-19T08:26:42;21.83;;;9.98;;
37847;SDS011;23688;33.130;-117.188;2022-08-19T08:29:10;16.88;;;9.02;;
37847;SDS011;23688;33.130;-117.188;2022-08-19T08:31:38;14.20;;;8.57;;
37847;SDS011;23688;33.130;-117.188;2022-08-19T08:34:06;12.60;;;8.65;;
37847;SDS011;23688;33.130;-117.188;2022-08-19T08:36:35;19.90;;;9.05;;
37847;SDS011;23688;33.130;-117.188;2022-08-19T08:39:11;17.40;;;9.02;;
37847;SDS011;23688;33.130;-117.188;2022-08-19T08:47:18;14.00;;;9.20;;
37847;SDS011;23688;33.130;-117.188;2022-08-19T08:49:51;20.75;;;10.23;;
37847;SDS011;23688;33.130;-117.188;2022-08-19T08:52:30;13.98;;;9.30;;
37847;SDS011;23688;33.130;-117.188;2022-08-19T08:55:06;19.85;;;9.65;;
37847;SDS011;23688;33.130;-117.188;2022-08-19T08:57:43;17.92;;;10.18;;
37847;SDS011;23688;33.130;-117.188;2022-08-19T09:00:18;23.50;;;10.70;;
37847;SDS011;23688;33.130;-117.188;2022-08-19T09:02:56;23.35;;;11.20;;
37847;SDS011;23688;33.130;-117.188;2022-08-19T09:05:26;19.05;;;11.13;;
37847;SDS011;23688;33.130;-117.188;2022-08-19T09:08:10;28.95;;;11.63;;
37847;SDS011;23688;33.130;-117.188;2022-08-19T09:10:44;19.08;;;11.18;;
37847;SDS011;23688;33.130;-117.188;2022-08-19T09:16:02;25.50;;;12.00;;
37847;SDS011;23688;33.130;-117.188;2022-08-19T09:18:45;22.75;;;12.70;;
37847;SDS011;23688;33.130;-117.188;2022-08-19T09:21:17;26.60;;;12.63;;
37847;SDS011;23688;33.130;-117.188;2022-08-19T09:23:44;22.45;;;12.15;;
37847;SDS011;23688;33.130;-117.188;2022-08-19T09:26:11;19.80;;;10.10;;
37847;SDS011;23688;33.130;-117.188;2022-08-19T09:28:40;18.30;;;10.25;;
37847;SDS011;23688;33.130;-117.188;2022-08-19T09:31:11;14.88;;;9.73;;
37847;SDS011;23688;33.130;-117.188;2022-08-19T09:33:44;21.63;;;10.05;;
37847;SDS011;23688;33.130;-117.188;2022-08-19T09:36:12;30.92;;;11.30;;
37847;SDS011;23688;33.130;-117.188;2022-08-19T09:38:40;16.90;;;10.25;;
37847;SDS011;23688;33.130;-117.188;2022-08-19T09:41:08;21.42;;;10.82;;
37847;SDS011;23688;33.130;-117.188;2022-08-19T09:43:39;17.83;;;9.80;;
37847;SDS011;23688;33.130;-117.188;2022-08-19T09:46:06;26.70;;;10.90;;
37847;SDS011;23688;33.130;-117.188;2022-08-19T09:48:35;26.67;;;11.77;;
37847;SDS011;23688;33.130;-117.188;2022-08-19T09:51:09;17.83;;;10.25;;
37847;SDS011;23688;33.130;-117.188;2022-08-19T09:53:45;16.23;;;9.73;;
37847;SDS011;23688;33.130;-117.188;2022-08-19T09:56:15;25.92;;;10.98;;
37847;SDS011;23688;33.130;-117.188;2022-08-19T09:58:42;23.73;;;10.48;;
37847;SDS011;23688;33.130;-117.188;2022-08-19T10:01:09;20.73;;;10.50;;
37847;SDS011;23688;33.130;-117.188;2022-08-19T10:03:40;17.00;;;10.00;;
37847;SDS011;23688;33.130;-117.188;2022-08-19T10:06:07;22.80;;;10.10;;
37847;SDS011;23688;33.130;-117.188;2022-08-19T10:08:35;18.60;;;10.35;;
37847;SDS011;23688;33.130;-117.188;2022-08-19T10:11:04;17.35;;;9.60;;
37847;SDS011;23688;33.130;-117.188;2022-08-19T10:13:31;17.58;;;9.38;;
37847;SDS011;23688;33.130;-117.188;2022-08-19T10:16:04;19.88;;;9.73;;
37847;SDS011;23688;33.130;-117.188;2022-08-19T10:18:33;20.65;;;10.05;;
37847;SDS011;23688;33.130;-117.188;2022-08-19T10:21:07;20.83;;;10.48;;
37847;SDS011;23688;33.130;-117.188;2022-08-19T10:23:40;18.40;;;9.80;;
37847;SDS011;23688;33.130;-117.188;2022-08-19T10:26:12;16.08;;;9.85;;
37847;SDS011;23688;33.130;-117.188;2022-08-19T10:28:40;14.20;;;9.27;;
37847;SDS011;23688;33.130;-117.188;2022-08-19T10:31:11;19.00;;;11.02;;
37847;SDS011;23688;33.130;-117.188;2022-08-19T10:33:42;15.82;;;10.43;;
37847;SDS011;23688;33.130;-117.188;2022-08-19T10:36:10;11.82;;;9.10;;
37847;SDS011;23688;33.130;-117.188;2022-08-19T10:38:43;16.67;;;10.45;;
37847;SDS011;23688;33.130;-117.188;2022-08-19T10:41:12;16.85;;;10.13;;
37847;SDS011;23688;33.130;-117.188;2022-08-19T10:43:41;11.65;;;9.48;;
37847;SDS011;23688;33.130;-117.188;2022-08-19T10:46:11;14.80;;;8.95;;
37847;SDS011;23688;33.130;-117.188;2022-08-19T10:48:40;17.48;;;9.60;;
37847;SDS011;23688;33.130;-117.188;2022-08-19T10:51:08;12.77;;;9.02;;
37847;SDS011;23688;33.130;-117.188;2022-08-19T10:53:54;18.25;;;9.98;;
37847;SDS011;23688;33.130;-117.188;2022-08-19T10:56:22;17.23;;;9.82;;
37847;SDS011;23688;33.130;-117.188;2022-08-19T10:59:06;18.80;;;10.52;;
37847;SDS011;23688;33.130;-117.188;2022-08-19T11:01:33;19.33;;;10.38;;
37847;SDS011;23688;33.130;-117.188;2022-08-19T11:04:01;16.52;;;10.35;;
37847;SDS011;23688;33.130;-117.188;2022-08-19T11:06:30;17.30;;;9.48;;
37847;SDS011;23688;33.130;-117.188;2022-08-19T11:08:57;17.85;;;8.40;;
37847;SDS011;23688;33.130;-117.188;2022-08-19T11:11:25;15.65;;;9.13;;
37847;SDS011;23688;33.130;-117.188;2022-08-19T11:13:53;17.15;;;10.70;;
37847;SDS011;23688;33.130;-117.188;2022-08-19T11:16:20;16.67;;;8.93;;
37847;SDS011;23688;33.130;-117.188;2022-08-19T11:18:51;12.85;;;8.23;;
37847;SDS011;23688;33.130;-117.188;2022-08-19T11:21:21;18.70;;;9.73;;
37847;SDS011;23688;33.130;-117.188;2022-08-19T11:23:54;14.95;;;9.88;;
37847;SDS011;23688;33.130;-117.188;2022-08-19T11:26:23;24.60;;;10.23;;
37847;SDS011;23688;33.130;-117.188;2022-08-19T11:28:50;20.15;;;10.02;;
37847;SDS011;23688;33.130;-117.188;2022-08-19T11:31:21;20.85;;;9.75;;
37847;SDS011;23688;33.130;-117.188;2022-08-19T11:33:52;16.73;;;10.23;;
37847;SDS011;23688;33.130;-117.188;2022-08-19T11:36:19;17.48;;;10.80;;
37847;SDS011;23688;33.130;-117.188;2022-08-19T11:38:47;17.43;;;11.30;;
37847;SDS011;23688;33.130;-117.188;2022-08-19T11:41:16;24.38;;;12.45;;
37847;SDS011;23688;33.130;-117.188;2022-08-19T11:43:44;21.20;;;11.32;;
37847;SDS011;23688;33.130;-117.188;2022-08-19T11:46:11;19.33;;;11.65;;
37847;SDS011;23688;33.130;-117.188;2022-08-19T11:48:40;20.90;;;10.65;;
37847;SDS011;23688;33.130;-117.188;2022-08-19T11:51:13;21.77;;;12.25;;
37847;SDS011;23688;33.130;-117.188;2022-08-19T11:53:41;24.23;;;11.40;;
37847;SDS011;23688;33.130;-117.188;2022-08-19T11:56:08;19.77;;;10.65;;
37847;SDS011;23688;33.130;-117.188;2022-08-19T11:58:35;20.15;;;11.70;;
37847;SDS011;23688;33.130;-117.188;2022-08-19T12:01:06;17.60;;;10.57;;
37847;SDS011;23688;33.130;-117.188;2022-08-19T12:03:37;23.73;;;10.98;;
37847;SDS011;23688;33.130;-117.188;2022-08-19T12:06:05;16.83;;;10.80;;
37847;SDS011;23688;33.130;-117.188;2022-08-19T12:08:32;19.05;;;10.57;;
37847;SDS011;23688;33.130;-117.188;2022-08-19T12:10:59;24.20;;;10.90;;
37847;SDS011;23688;33.130;-117.188;2022-08-19T12:13:29;19.67;;;12.18;;
37847;SDS011;23688;33.130;-117.188;2022-08-19T12:15:56;22.42;;;12.00;;
37847;SDS011;23688;33.130;-117.188;2022-08-19T12:18:23;25.33;;;11.52;;
37847;SDS011;23688;33.130;-117.188;2022-08-19T12:20:50;21.58;;;11.88;;
37847;SDS011;23688;33.130;-117.188;2022-08-19T12:23:20;21.10;;;12.32;;
37847;SDS011;23688;33.130;-117.188;2022-08-19T12:25:47;19.40;;;11.18;;
37847;SDS011;23688;33.130;-117.188;2022-08-19T12:28:19;18.08;;;11.57;;
37847;SDS011;23688;33.130;-117.188;2022-08-19T12:30:48;14.45;;;10.77;;
37847;SDS011;23688;33.130;-117.188;2022-08-19T12:33:16;23.63;;;11.05;;
37847;SDS011;23688;33.130;-117.188;2022-08-19T12:35:44;19.48;;;11.32;;
37847;SDS011;23688;33.130;-117.188;2022-08-19T12:38:12;28.67;;;12.07;;
37847;SDS011;23688;33.130;-117.188;2022-08-19T12:40:40;22.23;;;12.88;;
37847;SDS011;23688;33.130;-117.188;2022-08-19T12:43:07;21.75;;;11.88;;
37847;SDS011;23688;33.130;-117.188;2022-08-19T12:45:34;19.30;;;11.18;;
37847;SDS011;23688;33.130;-117.188;2022-08-19T12:48:00;20.95;;;11.80;;
37847;SDS011;23688;33.130;-117.188;2022-08-19T12:50:28;22.57;;;13.27;;
37847;SDS011;23688;33.130;-117.188;2022-08-19T12:52:55;22.85;;;13.07;;
37847;SDS011;23688;33.130;-117.188;2022-08-19T12:55:23;22.42;;;14.75;;
37847;SDS011;23688;33.130;-117.188;2022-08-19T12:57:50;29.13;;;16.13;;
37847;SDS011;23688;33.130;-117.188;2022-08-19T13:00:17;25.30;;;14.60;;
37847;SDS011;23688;33.130;-117.188;2022-08-19T13:02:47;26.40;;;14.77;;
37847;SDS011;23688;33.130;-117.188;2022-08-19T13:05:21;24.60;;;13.93;;
37847;SDS011;23688;33.130;-117.188;2022-08-19T13:07:49;26.27;;;15.98;;
37847;SDS011;23688;33.130;-117.188;2022-08-19T13:10:19;23.30;;;14.75;;
37847;SDS011;23688;33.130;-117.188;2022-08-19T13:12:47;30.23;;;14.88;;
37847;SDS011;23688;33.130;-117.188;2022-08-19T13:15:15;30.50;;;15.63;;
37847;SDS011;23688;33.130;-117.188;2022-08-19T13:17:46;24.45;;;15.50;;
37847;SDS011;23688;33.130;-117.188;2022-08-19T13:20:15;24.60;;;13.85;;
37847;SDS011;23688;33.130;-117.188;2022-08-19T13:22:44;23.48;;;15.85;;
37847;SDS011;23688;33.130;-117.188;2022-08-19T13:25:12;24.13;;;14.75;;
37847;SDS011;23688;33.130;-117.188;2022-08-19T13:27:39;22.42;;;14.30;;
37847;SDS011;23688;33.130;-117.188;2022-08-19T13:30:06;27.90;;;16.77;;
37847;SDS011;23688;33.130;-117.188;2022-08-19T13:32:53;29.80;;;17.40;;
37847;SDS011;23688;33.130;-117.188;2022-08-19T13:35:40;28.75;;;15.65;;
37847;SDS011;23688;33.130;-117.188;2022-08-19T13:38:07;27.23;;;15.95;;
37847;SDS011;23688;33.130;-117.188;2022-08-19T13:40:35;30.75;;;17.73;;
37847;SDS011;23688;33.130;-117.188;2022-08-19T13:43:03;21.23;;;13.90;;
37847;SDS011;23688;33.130;-117.188;2022-08-19T13:45:31;27.05;;;14.85;;
37847;SDS011;23688;33.130;-117.188;2022-08-19T13:47:59;25.98;;;14.57;;
37847;SDS011;23688;33.130;-117.188;2022-08-19T13:50:29;24.38;;;14.98;;
37847;SDS011;23688;33.130;-117.188;2022-08-19T13:52:56;23.13;;;15.80;;
37847;SDS011;23688;33.130;-117.188;2022-08-19T13:55:23;22.17;;;13.52;;
37847;SDS011;23688;33.130;-117.188;2022-08-19T13:57:51;24.67;;;13.30;;
37847;SDS011;23688;33.130;-117.188;2022-08-19T14:00:18;23.00;;;13.50;;
37847;SDS011;23688;33.130;-117.188;2022-08-19T14:02:46;23.63;;;14.33;;
37847;SDS011;23688;33.130;-117.188;2022-08-19T14:05:16;25.80;;;13.70;;
37847;SDS011;23688;33.130;-117.188;2022-08-19T14:07:44;27.17;;;12.93;;
37847;SDS011;23688;33.130;-117.188;2022-08-19T14:10:11;23.42;;;12.75;;
37847;SDS011;23688;33.130;-117.188;2022-08-19T14:12:38;22.52;;;12.60;;
37847;SDS011;23688;33.130;-117.188;2022-08-19T14:15:06;22.10;;;13.05;;
37847;SDS011;23688;33.130;-117.188;2022-08-19T14:17:33;24.23;;;12.30;;
37847;SDS011;23688;33.130;-117.188;2022-08-19T14:20:01;20.63;;;12.45;;
37847;SDS011;23688;33.130;-117.188;2022-08-19T14:22:33;25.27;;;12.27;;
37847;SDS011;23688;33.130;-117.188;2022-08-19T14:25:00;18.33;;;11.73;;
37847;SDS011;23688;33.130;-117.188;2022-08-19T14:27:26;21.50;;;11.43;;
37847;SDS011;23688;33.130;-117.188;2022-08-19T14:29:53;22.65;;;11.65;;